sensor_id;sensor_type;location;lat;lon;timestamp;pressure;altitude;pressure_sealevel;temperature;humidity
28008;BME280;15333;50.010;20.020;2023-03-14T00:02:41;97344.63;;;12.45;46.82
28008;BME280;15333;50.010;20.020;2023-03-14T00:05:42;97350.47;;;12.40;46.97
28008;BME280;15333;50.010;20.020;2023-03-14T00:08:44;97355.03;;;12.48;46.03
28008;BME280;15333;50.010;20.020;2023-03-14T00:11:45;97349.97;;;12.45;46.00
28008;BME280;15333;50.010;20.020;2023-03-14T00:14:47;97343.56;;;12.30;47.23
28008;BME280;15333;50.010;20.020;2023-03-14T00:17:48;97341.38;;;12.25;47.64
28008;BME280;15333;50.010;20.020;2023-03-14T00:20:48;97341.25;;;12.35;47.17
28008;BME280;15333;50.010;20.020;2023-03-14T00:23:50;97335.50;;;12.22;47.00
28008;BME280;15333;50.010;20.020;2023-03-14T00:26:51;97330.56;;;12.09;48.04
28008;BME280;15333;50.010;20.020;2023-03-14T00:29:52;97325.69;;;12.04;48.39
28008;BME280;15333;50.010;20.020;2023-03-14T00:32:52;97333.56;;;12.48;47.18
28008;BME280;15333;50.010;20.020;2023-03-14T00:35:59;97331.50;;;12.34;47.83
28008;BME280;15333;50.010;20.020;2023-03-14T00:39:00;97318.25;;;12.32;47.53
28008;BME280;15333;50.010;20.020;2023-03-14T00:42:01;97310.69;;;12.28;47.12
28008;BME280;15333;50.010;20.020;2023-03-14T00:45:03;97306.69;;;12.32;47.34
28008;BME280;15333;50.010;20.020;2023-03-14T00:48:04;97293.25;;;12.24;47.77
28008;BME280;15333;50.010;20.020;2023-03-14T00:51:06;97291.91;;;12.20;47.99
28008;BME280;15333;50.010;20.020;2023-03-14T00:54:08;97295.69;;;12.09;47.86
28008;BME280;15333;50.010;20.020;2023-03-14T00:57:08;97280.06;;;11.96;49.25
28008;BME280;15333;50.010;20.020;2023-03-14T01:00:10;97279.72;;;11.91;49.49
28008;BME280;15333;50.010;20.020;2023-03-14T01:03:13;97259.56;;;11.79;49.99
28008;BME280;15333;50.010;20.020;2023-03-14T01:06:23;97257.34;;;11.74;49.50
28008;BME280;15333;50.010;20.020;2023-03-14T01:09:24;97250.38;;;11.56;50.59
28008;BME280;15333;50.010;20.020;2023-03-14T01:12:27;97237.50;;;11.59;50.32
28008;BME280;15333;50.010;20.020;2023-03-14T01:15:28;97215.59;;;11.64;49.67
28008;BME280;15333;50.010;20.020;2023-03-14T01:18:29;97212.69;;;11.49;50.08
28008;BME280;15333;50.010;20.020;2023-03-14T01:21:32;97205.53;;;11.58;50.35
28008;BME280;15333;50.010;20.020;2023-03-14T01:24:33;97193.09;;;11.49;50.36
28008;BME280;15333;50.010;20.020;2023-03-14T01:27:34;97182.97;;;11.34;51.24
28008;BME280;15333;50.010;20.020;2023-03-14T01:30:35;97187.44;;;11.26;50.99
28008;BME280;15333;50.010;20.020;2023-03-14T01:33:37;97185.00;;;11.07;52.25
28008;BME280;15333;50.010;20.020;2023-03-14T01:36:39;97199.94;;;10.66;53.14
28008;BME280;15333;50.010;20.020;2023-03-14T01:39:40;97193.00;;;10.37;54.74
28008;BME280;15333;50.010;20.020;2023-03-14T01:42:45;97177.25;;;10.34;55.16
28008;BME280;15333;50.010;20.020;2023-03-14T01:52:45;97188.53;;;10.64;54.36
28008;BME280;15333;50.010;20.020;2023-03-14T01:55:48;97179.53;;;10.65;55.04
28008;BME280;15333;50.010;20.020;2023-03-14T01:58:51;97173.13;;;10.57;54.97
28008;BME280;15333;50.010;20.020;2023-03-14T02:01:54;97169.00;;;10.45;55.30
28008;BME280;15333;50.010;20.020;2023-03-14T02:04:56;97165.88;;;10.32;56.29
28008;BME280;15333;50.010;20.020;2023-03-14T02:08:05;97149.53;;;10.17;56.42
28008;BME280;15333;50.010;20.020;2023-03-14T02:11:15;97140.53;;;10.18;56.73
28008;BME280;15333;50.010;20.020;2023-03-14T02:14:35;97138.75;;;10.27;57.05
28008;BME280;15333;50.010;20.020;2023-03-14T02:17:54;97124.22;;;10.12;57.23
28008;BME280;15333;50.010;20.020;2023-03-14T02:21:20;97114.44;;;10.03;57.52
28008;BME280;15333;50.010;20.020;2023-03-14T02:24:31;97109.53;;;10.16;57.16
28008;BME280;15333;50.010;20.020;2023-03-14T02:27:40;97093.16;;;10.11;57.64
28008;BME280;15333;50.010;20.020;2023-03-14T02:30:42;97096.00;;;10.27;57.21
28008;BME280;15333;50.010;20.020;2023-03-14T02:33:44;97082.06;;;10.41;56.76
28008;BME280;15333;50.010;20.020;2023-03-14T02:36:45;97079.41;;;10.24;56.63
28008;BME280;15333;50.010;20.020;2023-03-14T02:39:46;97070.00;;;10.37;57.11
28008;BME280;15333;50.010;20.020;2023-03-14T02:42:49;97055.72;;;10.29;57.01
28008;BME280;15333;50.010;20.020;2023-03-14T02:45:51;97058.22;;;10.30;57.57
28008;BME280;15333;50.010;20.020;2023-03-14T02:49:01;97041.75;;;10.17;58.12
28008;BME280;15333;50.010;20.020;2023-03-14T02:52:05;97056.41;;;10.13;57.88
28008;BME280;15333;50.010;20.020;2023-03-14T02:55:07;97049.69;;;10.09;57.86
28008;BME280;15333;50.010;20.020;2023-03-14T02:58:09;97057.66;;;10.01;58.29
28008;BME280;15333;50.010;20.020;2023-03-14T03:01:10;97051.63;;;9.99;58.40
28008;BME280;15333;50.010;20.020;2023-03-14T03:04:12;97051.69;;;10.07;58.14
28008;BME280;15333;50.010;20.020;2023-03-14T03:07:13;97043.56;;;9.73;59.03
28008;BME280;15333;50.010;20.020;2023-03-14T03:10:14;97018.34;;;9.75;59.29
28008;BME280;15333;50.010;20.020;2023-03-14T03:13:16;97021.13;;;9.48;59.77
28008;BME280;15333;50.010;20.020;2023-03-14T03:16:18;97029.81;;;9.32;60.10
28008;BME280;15333;50.010;20.020;2023-03-14T03:19:19;97032.22;;;9.08;61.00
28008;BME280;15333;50.010;20.020;2023-03-14T03:22:22;97030.44;;;8.99;62.09
28008;BME280;15333;50.010;20.020;2023-03-14T03:25:23;97025.16;;;8.89;62.30
28008;BME280;15333;50.010;20.020;2023-03-14T03:28:24;97016.13;;;8.73;63.08
28008;BME280;15333;50.010;20.020;2023-03-14T03:31:26;97010.72;;;8.55;63.07
28008;BME280;15333;50.010;20.020;2023-03-14T03:34:28;97008.91;;;8.55;63.51
28008;BME280;15333;50.010;20.020;2023-03-14T03:37:34;97000.16;;;8.36;63.77
28008;BME280;15333;50.010;20.020;2023-03-14T03:40:35;97009.00;;;8.26;64.43
28008;BME280;15333;50.010;20.020;2023-03-14T03:43:36;97012.94;;;8.22;64.69
28008;BME280;15333;50.010;20.020;2023-03-14T03:46:39;97003.25;;;8.21;64.85
28008;BME280;15333;50.010;20.020;2023-03-14T03:49:40;97007.75;;;8.11;65.00
28008;BME280;15333;50.010;20.020;2023-03-14T03:52:44;97011.00;;;8.05;65.69
28008;BME280;15333;50.010;20.020;2023-03-14T03:55:44;97007.88;;;8.19;65.39
28008;BME280;15333;50.010;20.020;2023-03-14T03:58:46;97003.53;;;8.38;64.39
28008;BME280;15333;50.010;20.020;2023-03-14T04:01:46;97002.81;;;8.36;64.10
28008;BME280;15333;50.010;20.020;2023-03-14T04:04:48;97007.31;;;8.35;64.72
28008;BME280;15333;50.010;20.020;2023-03-14T04:07:49;97022.47;;;8.35;64.10
28008;BME280;15333;50.010;20.020;2023-03-14T04:11:00;97031.91;;;8.66;63.32
28008;BME280;15333;50.010;20.020;2023-03-14T04:14:20;97034.50;;;8.76;63.04
28008;BME280;15333;50.010;20.020;2023-03-14T04:17:24;97029.63;;;8.71;62.64
28008;BME280;15333;50.010;20.020;2023-03-14T04:20:26;97017.50;;;8.77;62.63
28008;BME280;15333;50.010;20.020;2023-03-14T04:23:27;97012.41;;;8.83;62.60
28008;BME280;15333;50.010;20.020;2023-03-14T04:26:29;97012.50;;;8.74;62.95
28008;BME280;15333;50.010;20.020;2023-03-14T04:29:30;97027.44;;;8.57;63.94
28008;BME280;15333;50.010;20.020;2023-03-14T04:32:31;97014.69;;;8.78;63.19
28008;BME280;15333;50.010;20.020;2023-03-14T04:35:33;97025.16;;;8.89;61.90
28008;BME280;15333;50.010;20.020;2023-03-14T04:38:40;97040.38;;;8.79;62.76
28008;BME280;15333;50.010;20.020;2023-03-14T04:41:44;97027.91;;;8.80;62.50
28008;BME280;15333;50.010;20.020;2023-03-14T04:44:51;97031.75;;;8.95;62.34
28008;BME280;15333;50.010;20.020;2023-03-14T04:47:56;97040.78;;;8.84;62.71
28008;BME280;15333;50.010;20.020;2023-03-14T04:50:57;97037.09;;;8.95;62.76
28008;BME280;15333;50.010;20.020;2023-03-14T04:53:59;97051.00;;;9.16;62.50
28008;BME280;15333;50.010;20.020;2023-03-14T04:57:00;97041.56;;;9.22;61.89
28008;BME280;15333;50.010;20.020;2023-03-14T05:00:05;97057.97;;;8.99;62.58
28008;BME280;15333;50.010;20.020;2023-03-14T05:03:27;97048.44;;;9.42;61.67
28008;BME280;15333;50.010;20.020;2023-03-14T05:06:42;97062.72;;;9.68;60.48
28008;BME280;15333;50.010;20.020;2023-03-14T05:10:01;97056.13;;;9.80;59.86
28008;BME280;15333;50.010;20.020;2023-03-14T05:13:20;97050.25;;;9.95;59.01
28008;BME280;15333;50.010;20.020;2023-03-14T05:16:37;97038.75;;;9.76;59.40
28008;BME280;15333;50.010;20.020;2023-03-14T05:20:16;97057.91;;;9.54;60.21
28008;BME280;15333;50.010;20.020;2023-03-14T05:23:36;97056.13;;;9.45;60.93
28008;BME280;15333;50.010;20.020;2023-03-14T05:26:48;97056.44;;;9.42;61.18
28008;BME280;15333;50.010;20.020;2023-03-14T05:29:56;97047.53;;;9.51;62.08
28008;BME280;15333;50.010;20.020;2023-03-14T05:32:57;97048.06;;;9.37;62.20
28008;BME280;15333;50.010;20.020;2023-03-14T05:36:13;97031.72;;;9.40;61.95
28008;BME280;15333;50.010;20.020;2023-03-14T05:39:32;97019.53;;;9.55;61.27
28008;BME280;15333;50.010;20.020;2023-03-14T05:42:59;97014.34;;;9.71;60.47
28008;BME280;15333;50.010;20.020;2023-03-14T05:46:19;97019.06;;;9.77;61.39
28008;BME280;15333;50.010;20.020;2023-03-14T05:49:43;97013.94;;;9.84;60.97
28008;BME280;15333;50.010;20.020;2023-03-14T05:53:07;96986.66;;;9.98;60.43
28008;BME280;15333;50.010;20.020;2023-03-14T05:56:23;97008.94;;;10.07;60.11
28008;BME280;15333;50.010;20.020;2023-03-14T05:59:41;97013.31;;;10.16;59.63
28008;BME280;15333;50.010;20.020;2023-03-14T06:03:14;96996.22;;;10.27;58.94
28008;BME280;15333;50.010;20.020;2023-03-14T06:06:19;96991.81;;;10.43;58.27
28008;BME280;15333;50.010;20.020;2023-03-14T06:09:20;96993.50;;;10.52;57.89
28008;BME280;15333;50.010;20.020;2023-03-14T06:12:24;96996.13;;;10.70;57.13
28008;BME280;15333;50.010;20.020;2023-03-14T06:15:25;97001.00;;;10.83;57.92
28008;BME280;15333;50.010;20.020;2023-03-14T06:18:29;96999.19;;;10.83;59.21
28008;BME280;15333;50.010;20.020;2023-03-14T06:21:31;97001.34;;;10.80;59.26
28008;BME280;15333;50.010;20.020;2023-03-14T06:24:32;96996.38;;;10.93;59.85
28008;BME280;15333;50.010;20.020;2023-03-14T06:27:34;97002.41;;;11.03;59.87
28008;BME280;15333;50.010;20.020;2023-03-14T06:30:35;97006.09;;;11.02;61.57
28008;BME280;15333;50.010;20.020;2023-03-14T06:33:36;96997.78;;;11.13;59.35
28008;BME280;15333;50.010;20.020;2023-03-14T06:36:38;96992.59;;;11.20;58.54
28008;BME280;15333;50.010;20.020;2023-03-14T06:39:39;96987.28;;;11.44;59.34
28008;BME280;15333;50.010;20.020;2023-03-14T06:42:48;96973.06;;;11.60;58.20
28008;BME280;15333;50.010;20.020;2023-03-14T06:45:50;96974.06;;;11.59;58.30
28008;BME280;15333;50.010;20.020;2023-03-14T06:48:51;96968.22;;;11.63;58.03
28008;BME280;15333;50.010;20.020;2023-03-14T06:51:52;96968.75;;;11.91;57.10
28008;BME280;15333;50.010;20.020;2023-03-14T06:54:54;96965.03;;;12.16;56.27
28008;BME280;15333;50.010;20.020;2023-03-14T06:57:56;96944.81;;;12.53;54.56
28008;BME280;15333;50.010;20.020;2023-03-14T07:00:58;96937.63;;;12.84;53.37
28008;BME280;15333;50.010;20.020;2023-03-14T07:04:04;96935.44;;;13.19;52.11
28008;BME280;15333;50.010;20.020;2023-03-14T07:07:05;96945.72;;;13.61;50.71
28008;BME280;15333;50.010;20.020;2023-03-14T07:10:08;96935.81;;;13.84;50.17
28008;BME280;15333;50.010;20.020;2023-03-14T07:13:10;96940.91;;;13.94;48.61
28008;BME280;15333;50.010;20.020;2023-03-14T07:16:22;96932.88;;;14.08;48.48
28008;BME280;15333;50.010;20.020;2023-03-14T07:19:23;96940.56;;;13.97;49.29
28008;BME280;15333;50.010;20.020;2023-03-14T07:22:24;96932.63;;;13.81;49.18
28008;BME280;15333;50.010;20.020;2023-03-14T07:25:27;96931.09;;;14.01;49.22
28008;BME280;15333;50.010;20.020;2023-03-14T07:28:28;96935.63;;;14.00;49.46
28008;BME280;15333;50.010;20.020;2023-03-14T07:31:35;96925.25;;;13.97;49.23
28008;BME280;15333;50.010;20.020;2023-03-14T07:34:37;96929.50;;;13.92;49.08
28008;BME280;15333;50.010;20.020;2023-03-14T07:37:39;96940.28;;;13.92;48.91
28008;BME280;15333;50.010;20.020;2023-03-14T07:40:40;96922.09;;;13.94;48.84
28008;BME280;15333;50.010;20.020;2023-03-14T07:43:41;96914.50;;;13.97;49.18
28008;BME280;15333;50.010;20.020;2023-03-14T07:46:42;96916.28;;;14.05;49.69
28008;BME280;15333;50.010;20.020;2023-03-14T07:49:43;96912.66;;;14.13;48.99
28008;BME280;15333;50.010;20.020;2023-03-14T07:52:43;96903.56;;;13.99;49.08
28008;BME280;15333;50.010;20.020;2023-03-14T07:55:45;96926.66;;;14.08;49.14
28008;BME280;15333;50.010;20.020;2023-03-14T07:58:46;96932.03;;;14.08;48.98
28008;BME280;15333;50.010;20.020;2023-03-14T08:01:47;96933.25;;;14.05;48.19
28008;BME280;15333;50.010;20.020;2023-03-14T08:04:48;96941.34;;;14.20;48.65
28008;BME280;15333;50.010;20.020;2023-03-14T08:07:50;96940.69;;;14.33;48.53
28008;BME280;15333;50.010;20.020;2023-03-14T08:10:50;96946.81;;;14.27;49.02
28008;BME280;15333;50.010;20.020;2023-03-14T08:13:51;96955.06;;;14.25;49.28
28008;BME280;15333;50.010;20.020;2023-03-14T08:16:52;96942.34;;;14.19;49.85
28008;BME280;15333;50.010;20.020;2023-03-14T08:19:53;96953.03;;;14.27;48.98
28008;BME280;15333;50.010;20.020;2023-03-14T08:23:01;96944.59;;;14.30;48.90
28008;BME280;15333;50.010;20.020;2023-03-14T08:26:02;96937.44;;;14.37;48.63
28008;BME280;15333;50.010;20.020;2023-03-14T08:29:03;96953.06;;;14.57;48.47
28008;BME280;15333;50.010;20.020;2023-03-14T08:32:05;96950.28;;;14.65;47.66
28008;BME280;15333;50.010;20.020;2023-03-14T08:35:07;96946.38;;;14.82;47.50
28008;BME280;15333;50.010;20.020;2023-03-14T08:38:08;96940.94;;;15.11;48.20
28008;BME280;15333;50.010;20.020;2023-03-14T08:41:09;96938.16;;;15.19;47.27
28008;BME280;15333;50.010;20.020;2023-03-14T08:44:10;96930.16;;;15.11;46.73
28008;BME280;15333;50.010;20.020;2023-03-14T08:47:14;96941.31;;;15.08;48.12
28008;BME280;15333;50.010;20.020;2023-03-14T08:50:15;96933.66;;;14.91;48.86
28008;BME280;15333;50.010;20.020;2023-03-14T08:53:16;96935.03;;;15.22;47.52
28008;BME280;15333;50.010;20.020;2023-03-14T08:56:17;96930.06;;;15.41;47.51
28008;BME280;15333;50.010;20.020;2023-03-14T08:59:17;96938.03;;;15.49;45.81
28008;BME280;15333;50.010;20.020;2023-03-14T09:02:18;96946.28;;;15.83;45.56
28008;BME280;15333;50.010;20.020;2023-03-14T09:05:19;96946.00;;;15.99;45.33
28008;BME280;15333;50.010;20.020;2023-03-14T09:08:21;96954.84;;;16.15;45.01
28008;BME280;15333;50.010;20.020;2023-03-14T09:11:21;96960.69;;;16.18;44.25
28008;BME280;15333;50.010;20.020;2023-03-14T09:14:22;96974.50;;;16.09;44.39
28008;BME280;15333;50.010;20.020;2023-03-14T09:17:24;96972.72;;;15.94;44.43
28008;BME280;15333;50.010;20.020;2023-03-14T09:20:25;96970.88;;;15.95;44.33
28008;BME280;15333;50.010;20.020;2023-03-14T09:23:25;96950.72;;;15.91;43.83
28008;BME280;15333;50.010;20.020;2023-03-14T09:26:26;96938.13;;;15.98;44.39
28008;BME280;15333;50.010;20.020;2023-03-14T09:29:27;96965.66;;;15.72;44.68
28008;BME280;15333;50.010;20.020;2023-03-14T09:32:30;96974.94;;;15.63;44.80
28008;BME280;15333;50.010;20.020;2023-03-14T09:35:33;96985.56;;;15.71;44.40
28008;BME280;15333;50.010;20.020;2023-03-14T09:38:35;96969.91;;;15.81;44.56
28008;BME280;15333;50.010;20.020;2023-03-14T09:41:38;96968.84;;;15.76;44.45
28008;BME280;15333;50.010;20.020;2023-03-14T09:44:56;96981.16;;;15.49;44.85
28008;BME280;15333;50.010;20.020;2023-03-14T09:47:58;96987.88;;;15.53;44.74
28008;BME280;15333;50.010;20.020;2023-03-14T09:51:03;96999.41;;;15.61;44.83
28008;BME280;15333;50.010;20.020;2023-03-14T09:54:13;96996.06;;;15.45;44.81
28008;BME280;15333;50.010;20.020;2023-03-14T09:57:21;96994.19;;;15.60;44.73
28008;BME280;15333;50.010;20.020;2023-03-14T10:00:27;96993.88;;;15.70;44.11
28008;BME280;15333;50.010;20.020;2023-03-14T10:03:32;96985.78;;;15.91;43.91
28008;BME280;15333;50.010;20.020;2023-03-14T10:06:34;97001.13;;;15.90;44.11
28008;BME280;15333;50.010;20.020;2023-03-14T10:09:35;97002.94;;;16.04;44.60
28008;BME280;15333;50.010;20.020;2023-03-14T10:12:37;97014.66;;;16.39;43.32
28008;BME280;15333;50.010;20.020;2023-03-14T10:15:40;97009.44;;;16.38;43.63
28008;BME280;15333;50.010;20.020;2023-03-14T10:18:45;97011.78;;;16.20;43.46
28008;BME280;15333;50.010;20.020;2023-03-14T10:21:53;97020.44;;;16.15;43.82
28008;BME280;15333;50.010;20.020;2023-03-14T10:24:56;97013.91;;;16.03;43.89
28008;BME280;15333;50.010;20.020;2023-03-14T10:28:00;97015.94;;;16.22;44.76
28008;BME280;15333;50.010;20.020;2023-03-14T10:31:02;97008.44;;;16.18;43.74
28008;BME280;15333;50.010;20.020;2023-03-14T10:34:04;97006.69;;;16.31;44.04
28008;BME280;15333;50.010;20.020;2023-03-14T10:37:15;97003.16;;;16.31;43.95
28008;BME280;15333;50.010;20.020;2023-03-14T10:40:18;97016.31;;;16.13;44.62
28008;BME280;15333;50.010;20.020;2023-03-14T10:43:39;97021.28;;;16.16;44.53
28008;BME280;15333;50.010;20.020;2023-03-14T10:46:41;97015.69;;;16.38;43.92
28008;BME280;15333;50.010;20.020;2023-03-14T10:53:26;97024.84;;;16.44;43.89
28008;BME280;15333;50.010;20.020;2023-03-14T10:56:33;97020.63;;;16.35;44.48
28008;BME280;15333;50.010;20.020;2023-03-14T10:59:37;97017.34;;;16.39;44.09
28008;BME280;15333;50.010;20.020;2023-03-14T11:05:49;97009.53;;;16.51;43.94
28008;BME280;15333;50.010;20.020;2023-03-14T11:09:02;97006.44;;;16.54;43.92
28008;BME280;15333;50.010;20.020;2023-03-14T11:12:33;97001.53;;;16.36;44.59
28008;BME280;15333;50.010;20.020;2023-03-14T11:16:09;97006.97;;;16.15;45.53
28008;BME280;15333;50.010;20.020;2023-03-14T11:19:32;97001.13;;;15.90;46.35
28008;BME280;15333;50.010;20.020;2023-03-14T11:22:46;96994.44;;;15.65;47.17
28008;BME280;15333;50.010;20.020;2023-03-14T11:25:56;96990.53;;;15.68;47.04
28008;BME280;15333;50.010;20.020;2023-03-14T11:29:17;96978.97;;;15.95;46.98
28008;BME280;15333;50.010;20.020;2023-03-14T11:39:11;96979.66;;;16.03;46.91
28008;BME280;15333;50.010;20.020;2023-03-14T11:42:16;96970.94;;;16.01;47.32
28008;BME280;15333;50.010;20.020;2023-03-14T11:45:39;96975.19;;;15.68;47.78
28008;BME280;15333;50.010;20.020;2023-03-14T11:52:11;96975.31;;;15.81;48.00
28008;BME280;15333;50.010;20.020;2023-03-14T11:55:26;96972.59;;;16.02;47.47
28008;BME280;15333;50.010;20.020;2023-03-14T11:58:34;96982.50;;;15.74;47.75
28008;BME280;15333;50.010;20.020;2023-03-14T12:01:57;96984.41;;;15.59;48.29
28008;BME280;15333;50.010;20.020;2023-03-14T12:05:25;96991.03;;;15.42;47.66
28008;BME280;15333;50.010;20.020;2023-03-14T12:11:35;96977.50;;;15.20;48.29
28008;BME280;15333;50.010;20.020;2023-03-14T12:14:37;96980.88;;;15.22;49.01
28008;BME280;15333;50.010;20.020;2023-03-14T12:17:45;96973.69;;;15.29;47.85
28008;BME280;15333;50.010;20.020;2023-03-14T12:21:16;96977.94;;;15.39;47.77
28008;BME280;15333;50.010;20.020;2023-03-14T12:24:19;96969.59;;;15.34;48.07
28008;BME280;15333;50.010;20.020;2023-03-14T12:30:43;96969.09;;;15.45;48.10
28008;BME280;15333;50.010;20.020;2023-03-14T12:33:44;96951.25;;;15.44;47.46
28008;BME280;15333;50.010;20.020;2023-03-14T12:40:05;96939.19;;;15.40;46.91
28008;BME280;15333;50.010;20.020;2023-03-14T12:43:40;96942.00;;;15.32;48.27
28008;BME280;15333;50.010;20.020;2023-03-14T12:46:43;96938.84;;;15.28;48.19
28008;BME280;15333;50.010;20.020;2023-03-14T12:49:54;96930.31;;;15.24;48.18
28008;BME280;15333;50.010;20.020;2023-03-14T12:56:45;96929.00;;;15.20;48.99
28008;BME280;15333;50.010;20.020;2023-03-14T12:59:52;96926.88;;;15.16;49.22
28008;BME280;15333;50.010;20.020;2023-03-14T13:03:23;96940.94;;;15.11;49.23
28008;BME280;15333;50.010;20.020;2023-03-14T13:06:48;96939.47;;;14.94;49.81
28008;BME280;15333;50.010;20.020;2023-03-14T13:10:04;96945.25;;;14.91;48.86
28008;BME280;15333;50.010;20.020;2023-03-14T13:13:24;96942.38;;;14.78;49.21
28008;BME280;15333;50.010;20.020;2023-03-14T13:16:27;96949.44;;;14.64;50.59
28008;BME280;15333;50.010;20.020;2023-03-14T13:19:30;96947.69;;;14.57;50.24
28008;BME280;15333;50.010;20.020;2023-03-14T13:22:34;96952.53;;;14.46;51.42
28008;BME280;15333;50.010;20.020;2023-03-14T13:25:37;96958.25;;;14.43;51.33
28008;BME280;15333;50.010;20.020;2023-03-14T13:28:38;96962.41;;;14.31;52.57
28008;BME280;15333;50.010;20.020;2023-03-14T13:31:43;96965.22;;;14.38;52.57
28008;BME280;15333;50.010;20.020;2023-03-14T13:34:46;96974.19;;;14.30;53.44
28008;BME280;15333;50.010;20.020;2023-03-14T13:37:54;96976.94;;;14.22;53.50
28008;BME280;15333;50.010;20.020;2023-03-14T13:40:58;96982.34;;;14.22;54.03
28008;BME280;15333;50.010;20.020;2023-03-14T13:44:23;96986.41;;;14.18;54.29
28008;BME280;15333;50.010;20.020;2023-03-14T13:47:26;96979.16;;;14.04;55.05
28008;BME280;15333;50.010;20.020;2023-03-14T13:50:27;96982.25;;;13.93;55.21
28008;BME280;15333;50.010;20.020;2023-03-14T13:53:28;96990.31;;;13.93;56.17
28008;BME280;15333;50.010;20.020;2023-03-14T13:56:31;96998.06;;;13.96;56.18
28008;BME280;15333;50.010;20.020;2023-03-14T13:59:34;97013.22;;;13.89;56.52
28008;BME280;15333;50.010;20.020;2023-03-14T14:02:37;97004.88;;;13.84;56.27
28008;BME280;15333;50.010;20.020;2023-03-14T14:05:38;97002.72;;;13.79;56.67
28008;BME280;15333;50.010;20.020;2023-03-14T14:08:42;97011.81;;;13.78;56.56
28008;BME280;15333;50.010;20.020;2023-03-14T14:18:09;97023.84;;;13.59;58.07
28008;BME280;15333;50.010;20.020;2023-03-14T14:21:12;97015.84;;;13.51;58.38
28008;BME280;15333;50.010;20.020;2023-03-14T14:24:15;97016.44;;;13.39;59.02
28008;BME280;15333;50.010;20.020;2023-03-14T14:27:20;97002.81;;;13.40;59.33
28008;BME280;15333;50.010;20.020;2023-03-14T14:30:31;97003.16;;;13.37;59.61
28008;BME280;15333;50.010;20.020;2023-03-14T14:33:44;96998.50;;;13.31;59.79
28008;BME280;15333;50.010;20.020;2023-03-14T14:36:46;96997.19;;;13.27;59.94
28008;BME280;15333;50.010;20.020;2023-03-14T14:39:52;97008.66;;;13.21;60.56
28008;BME280;15333;50.010;20.020;2023-03-14T14:42:55;97009.00;;;13.18;60.45
28008;BME280;15333;50.010;20.020;2023-03-14T14:46:06;97025.69;;;12.89;61.71
28008;BME280;15333;50.010;20.020;2023-03-14T14:49:18;97027.59;;;12.72;62.67
28008;BME280;15333;50.010;20.020;2023-03-14T14:52:34;97018.91;;;12.62;64.52
28008;BME280;15333;50.010;20.020;2023-03-14T14:55:41;97026.69;;;12.41;66.22
28008;BME280;15333;50.010;20.020;2023-03-14T14:58:45;97031.38;;;12.23;67.70
28008;BME280;15333;50.010;20.020;2023-03-14T15:01:47;97037.78;;;12.05;70.28
28008;BME280;15333;50.010;20.020;2023-03-14T15:04:48;97027.72;;;11.91;70.66
28008;BME280;15333;50.010;20.020;2023-03-14T15:07:49;97030.41;;;11.83;71.87
28008;BME280;15333;50.010;20.020;2023-03-14T15:10:50;97036.75;;;11.74;72.67
28008;BME280;15333;50.010;20.020;2023-03-14T15:13:52;97045.75;;;11.73;72.08
28008;BME280;15333;50.010;20.020;2023-03-14T15:16:53;97044.28;;;11.70;72.08
28008;BME280;15333;50.010;20.020;2023-03-14T15:19:54;97055.81;;;11.71;73.38
28008;BME280;15333;50.010;20.020;2023-03-14T15:22:55;97051.13;;;11.65;73.45
28008;BME280;15333;50.010;20.020;2023-03-14T15:25:57;97043.75;;;11.67;72.06
28008;BME280;15333;50.010;20.020;2023-03-14T15:28:58;97037.22;;;11.69;72.99
28008;BME280;15333;50.010;20.020;2023-03-14T15:31:59;97053.63;;;11.66;73.35
28008;BME280;15333;50.010;20.020;2023-03-14T15:35:00;97047.09;;;11.69;72.48
28008;BME280;15333;50.010;20.020;2023-03-14T15:38:01;97052.47;;;11.69;72.37
28008;BME280;15333;50.010;20.020;2023-03-14T15:41:02;97059.81;;;11.67;73.43
28008;BME280;15333;50.010;20.020;2023-03-14T15:44:03;97069.22;;;11.63;73.33
28008;BME280;15333;50.010;20.020;2023-03-14T15:47:05;97072.22;;;11.68;73.87
28008;BME280;15333;50.010;20.020;2023-03-14T15:50:09;97078.91;;;11.56;74.18
28008;BME280;15333;50.010;20.020;2023-03-14T15:53:10;97085.94;;;11.57;74.59
28008;BME280;15333;50.010;20.020;2023-03-14T15:56:14;97078.38;;;11.52;74.65
28008;BME280;15333;50.010;20.020;2023-03-14T15:59:15;97077.53;;;11.52;75.58
28008;BME280;15333;50.010;20.020;2023-03-14T16:02:16;97073.00;;;11.44;75.90
28008;BME280;15333;50.010;20.020;2023-03-14T16:05:17;97073.84;;;11.36;76.57
28008;BME280;15333;50.010;20.020;2023-03-14T16:08:20;97063.06;;;11.20;77.64
28008;BME280;15333;50.010;20.020;2023-03-14T16:11:20;97066.56;;;11.13;78.54
28008;BME280;15333;50.010;20.020;2023-03-14T16:14:21;97054.66;;;11.07;79.54
28008;BME280;15333;50.010;20.020;2023-03-14T16:17:24;97059.31;;;11.05;79.24
28008;BME280;15333;50.010;20.020;2023-03-14T16:20:25;97067.34;;;11.05;79.95
28008;BME280;15333;50.010;20.020;2023-03-14T16:23:27;97068.00;;;10.99;80.03
28008;BME280;15333;50.010;20.020;2023-03-14T16:26:28;97065.13;;;10.92;81.42
28008;BME280;15333;50.010;20.020;2023-03-14T16:29:29;97070.59;;;10.83;82.20
28008;BME280;15333;50.010;20.020;2023-03-14T16:32:31;97080.34;;;10.92;81.88
28008;BME280;15333;50.010;20.020;2023-03-14T16:35:32;97080.16;;;10.85;83.24
28008;BME280;15333;50.010;20.020;2023-03-14T16:38:34;97083.88;;;10.67;85.27
28008;BME280;15333;50.010;20.020;2023-03-14T16:41:35;97082.03;;;10.67;86.25
28008;BME280;15333;50.010;20.020;2023-03-14T16:44:36;97071.97;;;10.61;87.90
28008;BME280;15333;50.010;20.020;2023-03-14T16:47:37;97069.88;;;10.47;89.08
28008;BME280;15333;50.010;20.020;2023-03-14T16:50:39;97082.75;;;10.43;90.38
28008;BME280;15333;50.010;20.020;2023-03-14T16:53:40;97089.38;;;10.39;89.84
28008;BME280;15333;50.010;20.020;2023-03-14T16:56:41;97082.00;;;10.33;91.96